createdAt,value
2023-06-01T11:07:55.423Z,2.67
2023-06-01T11:10:59.663Z,2.60
2023-06-01T11:13:31.172Z,2.67
2023-06-01T11:16:30.315Z,2.60
2023-06-01T11:19:00.577Z,2.30
2023-06-01T11:21:31.023Z,2.38
2023-06-01T11:24:02.469Z,2.67
2023-06-01T11:26:33.662Z,3.08
2023-06-01T11:29:10.406Z,2.88
2023-06-01T11:31:41.318Z,2.50
2023-06-01T11:34:11.633Z,2.75
2023-06-01T11:36:42.749Z,2.95
2023-06-01T11:39:25.238Z,2.88
2023-06-01T11:42:06.399Z,2.92
2023-06-01T11:44:36.264Z,2.03
2023-06-01T11:47:07.868Z,2.80
2023-06-01T11:49:45.480Z,2.58
2023-06-01T11:52:14.679Z,2.72
2023-06-01T11:54:45.483Z,2.67
2023-06-01T11:57:14.858Z,2.72
2023-06-01T11:59:45.708Z,2.70
2023-06-01T12:02:25.836Z,2.33
2023-06-01T12:04:59.974Z,2.95
2023-06-01T12:07:30.739Z,2.72
2023-06-01T12:10:02.497Z,2.20
2023-06-01T12:12:34.874Z,2.13
2023-06-01T12:15:04.279Z,2.63
2023-06-01T12:17:57.877Z,3.08
2023-06-01T12:20:32.033Z,2.38
2023-06-01T12:23:04.578Z,4.18
2023-06-01T12:25:35.437Z,3.80
2023-06-01T12:28:06.066Z,2.90
2023-06-01T12:30:35.259Z,1.95
2023-06-01T12:33:07.081Z,2.65
2023-06-01T12:35:50.217Z,2.90
2023-06-01T12:38:19.220Z,2.53
2023-06-01T12:41:08.534Z,2.60
2023-06-01T12:43:38.100Z,3.28
2023-06-01T12:46:07.769Z,2.92
2023-06-01T12:51:07.108Z,2.42
2023-06-01T12:53:36.286Z,2.70
2023-06-01T12:56:07.652Z,2.70
2023-06-01T12:58:36.370Z,2.45
2023-06-01T13:01:06.244Z,2.58
2023-06-01T13:03:35.811Z,2.10
2023-06-01T13:06:05.108Z,2.60
2023-06-01T13:08:34.257Z,2.78
2023-06-01T13:11:03.268Z,2.08
2023-06-01T13:13:33.388Z,2.63
2023-06-01T13:16:02.898Z,2.60
2023-06-01T13:21:01.008Z,2.43
2023-06-01T13:23:29.969Z,2.85
2023-06-01T13:25:59.214Z,2.40
2023-06-01T13:28:28.003Z,3.10
2023-06-01T13:30:58.531Z,3.00
2023-06-01T13:33:27.559Z,2.25
2023-06-01T13:35:56.851Z,2.55
2023-06-01T13:38:26.270Z,2.60
2023-06-01T13:40:55.263Z,2.50
2023-06-01T13:43:25.090Z,2.72
2023-06-01T13:45:54.488Z,2.40
2023-06-01T13:48:26.090Z,2.33
2023-06-01T13:50:55.120Z,2.75
2023-06-01T13:53:24.210Z,2.72
2023-06-01T13:55:52.940Z,2.55
2023-06-01T13:58:22.128Z,2.80
2023-06-01T14:00:51.362Z,2.58
2023-06-01T14:03:20.992Z,2.63
2023-06-01T14:05:55.818Z,2.25
2023-06-01T14:08:26.396Z,2.38
2023-06-01T14:10:55.123Z,2.20
2023-06-01T14:13:24.236Z,3.03
2023-06-01T14:15:53.236Z,2.33
2023-06-01T14:18:22.345Z,2.55
2023-06-01T14:20:53.679Z,2.55
2023-06-01T14:23:22.605Z,2.60
2023-06-01T14:25:51.486Z,2.35
2023-06-01T14:28:20.506Z,2.60
2023-06-01T14:30:49.750Z,2.90
2023-06-01T14:33:19.039Z,2.80
2023-06-01T14:35:48.066Z,2.50
2023-06-01T14:38:18.803Z,2.38
2023-06-01T14:40:47.940Z,2.63
2023-06-01T14:43:17.266Z,2.67
2023-06-01T14:45:46.330Z,3.50
2023-06-01T14:48:15.604Z,3.13
2023-06-01T14:50:44.924Z,3.05
2023-06-01T14:53:14.251Z,2.75
2023-06-01T14:55:44.660Z,3.30
2023-06-01T14:58:13.955Z,2.28
2023-06-01T15:00:43.032Z,3.42
2023-06-01T15:03:12.406Z,2.78
2023-06-01T15:05:41.497Z,2.85
2023-06-01T15:08:10.810Z,2.65
2023-06-01T15:10:39.537Z,2.60
2023-06-01T15:13:10.375Z,2.90
2023-06-01T15:15:39.479Z,3.13
2023-06-01T15:18:08.567Z,2.40
2023-06-01T15:20:37.565Z,2.78
2023-06-01T15:23:06.701Z,3.17
2023-06-01T15:25:35.452Z,3.95
2023-06-01T15:28:04.984Z,2.92
2023-06-01T15:33:08.639Z,2.40
2023-06-01T15:35:38.480Z,3.00
2023-06-01T15:38:07.579Z,2.80
2023-06-01T15:40:36.330Z,2.45
2023-06-01T15:43:05.405Z,3.10
2023-06-01T15:45:36.091Z,3.65
2023-06-01T15:48:05.376Z,3.00
2023-06-01T15:50:34.624Z,2.65
2023-06-01T15:53:03.769Z,2.60
2023-06-01T15:55:32.723Z,3.25
2023-06-01T15:58:01.879Z,2.67
2023-06-01T16:00:32.361Z,2.97
2023-06-01T16:03:02.970Z,2.63
2023-06-01T16:05:32.192Z,2.95
2023-06-01T16:08:01.459Z,2.85
2023-06-01T16:10:31.234Z,4.00
2023-06-01T16:13:00.682Z,2.95
2023-06-01T16:15:29.828Z,3.45
2023-06-01T16:17:59.002Z,2.77
2023-06-01T16:20:29.662Z,2.78
2023-06-01T16:22:58.545Z,3.00
2023-06-01T16:25:27.535Z,2.50
2023-06-01T16:27:57.717Z,2.92
2023-06-01T16:30:27.115Z,2.70
2023-06-01T16:32:56.307Z,2.70
2023-06-01T16:35:25.437Z,3.10
2023-06-01T16:37:55.588Z,2.80
2023-06-01T16:40:24.661Z,3.97
2023-06-01T16:42:53.633Z,3.03
2023-06-01T16:45:22.667Z,2.97
2023-06-01T16:47:53.304Z,2.67
2023-06-01T16:50:22.398Z,2.73
2023-06-01T16:52:51.182Z,2.58
2023-06-01T16:55:21.896Z,2.58
2023-06-01T16:57:50.992Z,3.45
2023-06-01T17:00:20.332Z,2.30
2023-06-01T17:02:49.647Z,3.05
2023-06-01T17:05:18.945Z,2.42
2023-06-01T17:07:47.732Z,2.70
2023-06-01T17:10:16.929Z,2.97
2023-06-01T17:12:47.398Z,3.05
2023-06-01T17:15:16.622Z,3.03
2023-06-01T17:17:45.968Z,3.60
2023-06-01T17:20:16.143Z,4.03
2023-06-01T17:22:46.273Z,3.63
2023-06-01T17:25:15.290Z,3.05
2023-06-01T17:27:45.133Z,3.28
2023-06-01T17:30:16.289Z,3.75
2023-06-01T17:32:45.636Z,3.08
2023-06-01T17:35:15.004Z,3.47
2023-06-01T17:37:43.785Z,2.78
2023-06-01T17:40:13.699Z,3.20
2023-06-01T17:42:43.017Z,4.32
2023-06-01T17:45:14.741Z,3.28
2023-06-01T17:47:45.323Z,3.25
2023-06-01T17:50:14.558Z,2.90
2023-06-01T17:52:43.589Z,3.85
2023-06-01T17:55:12.667Z,3.92
2023-06-01T17:57:41.866Z,3.88
2023-06-01T18:00:12.392Z,3.13
2023-06-01T18:02:41.501Z,3.35
2023-06-01T18:05:12.152Z,3.75
2023-06-01T18:10:10.644Z,3.67
2023-06-01T18:12:39.730Z,3.85
2023-06-01T18:15:09.743Z,3.67
2023-06-01T18:17:39.088Z,3.78
2023-06-01T18:20:09.389Z,2.90
2023-06-01T18:22:39.556Z,4.25
2023-06-01T18:25:09.558Z,3.92
2023-06-01T18:27:38.884Z,4.32
2023-06-01T18:30:09.873Z,3.42
2023-06-01T18:32:39.136Z,3.42
2023-06-01T18:35:09.341Z,3.63
2023-06-01T18:37:39.417Z,3.67
2023-06-01T18:40:09.824Z,3.45
2023-06-01T18:42:38.981Z,3.75
2023-06-01T18:45:08.860Z,3.60
2023-06-01T18:47:38.090Z,3.80
2023-06-01T18:50:08.391Z,3.75
2023-06-01T18:52:39.529Z,3.80
2023-06-01T18:55:10.379Z,3.33
2023-06-01T18:57:39.494Z,3.40
2023-06-01T19:00:09.748Z,3.85
2023-06-01T19:05:09.525Z,3.70
2023-06-01T19:07:40.732Z,3.55
2023-06-01T19:10:11.378Z,5.50
2023-06-01T19:12:40.849Z,3.50
2023-06-01T19:15:13.407Z,4.47
2023-06-01T19:17:43.045Z,3.63
2023-06-01T19:20:47.502Z,3.77
2023-06-01T19:23:17.709Z,3.33
2023-06-01T19:25:46.884Z,3.90
2023-06-01T19:28:15.861Z,4.28
2023-06-01T19:30:47.714Z,3.58
2023-06-01T19:33:18.839Z,4.38
2023-06-01T19:35:48.418Z,3.28
2023-06-01T19:38:20.215Z,3.33
2023-06-01T19:40:49.632Z,3.72
2023-06-01T19:43:40.702Z,4.53
2023-06-01T19:46:21.180Z,4.03
2023-06-01T19:51:20.586Z,3.58
2023-06-01T19:56:42.137Z,3.75
2023-06-01T19:59:19.723Z,3.55
2023-06-01T20:01:49.648Z,4.25
2023-06-01T20:04:19.053Z,3.65
2023-06-01T20:06:49.046Z,3.90
2023-06-01T20:09:21.086Z,4.78
2023-06-01T20:11:52.226Z,3.88
2023-06-01T20:14:24.018Z,4.63
2023-06-01T20:16:56.010Z,3.67
2023-06-01T20:19:25.377Z,3.97
2023-06-01T20:21:55.924Z,3.47
2023-06-01T20:24:27.482Z,5.97
2023-06-01T20:26:59.132Z,4.03
2023-06-01T20:29:29.779Z,3.80
2023-06-01T20:31:59.779Z,4.80
2023-06-01T20:34:30.651Z,4.05
2023-06-01T20:37:00.286Z,4.32
2023-06-01T20:39:30.923Z,4.43
2023-06-01T20:42:00.504Z,4.20
2023-06-01T20:44:29.859Z,4.17
2023-06-01T20:46:59.000Z,4.82
2023-06-01T20:49:29.389Z,4.43
2023-06-01T20:51:58.583Z,4.40
2023-06-01T20:54:30.664Z,5.07
2023-06-01T20:57:01.303Z,4.55
2023-06-01T20:59:32.696Z,4.18
2023-06-01T21:02:02.773Z,5.05
2023-06-01T21:04:32.986Z,4.15
2023-06-01T21:07:03.420Z,4.80
2023-06-01T21:09:34.081Z,4.72
2023-06-01T21:12:03.598Z,4.57
2023-06-01T21:14:32.913Z,4.25
2023-06-01T21:17:02.057Z,4.88
2023-06-01T21:19:30.806Z,4.50
2023-06-01T21:22:00.017Z,4.68
2023-06-01T21:24:29.204Z,4.85
2023-06-01T21:27:00.100Z,5.03
2023-06-01T21:29:29.231Z,4.80
2023-06-01T21:31:58.410Z,5.35
2023-06-01T21:34:27.116Z,5.18
2023-06-01T21:36:58.830Z,5.10
2023-06-01T21:39:28.013Z,4.97
2023-06-01T21:41:57.064Z,5.65
2023-06-01T21:44:27.771Z,5.63
2023-06-01T21:49:25.349Z,5.28
2023-06-01T21:51:54.463Z,5.03
2023-06-01T21:54:23.865Z,5.13
2023-06-01T21:56:53.110Z,5.17
2023-06-01T21:59:22.275Z,5.43
2023-06-01T22:01:52.395Z,5.63
2023-06-01T22:04:21.586Z,5.07
2023-06-01T22:06:50.655Z,5.22
2023-06-01T22:09:19.808Z,5.95
2023-06-01T22:11:48.973Z,5.70
2023-06-01T22:14:18.253Z,5.75
2023-06-01T22:16:46.909Z,5.80
2023-06-01T22:19:17.701Z,5.43
2023-06-01T22:21:47.166Z,5.60
2023-06-01T22:24:17.068Z,5.72
2023-06-01T22:26:46.142Z,4.95
2023-06-01T22:29:15.299Z,6.50
2023-06-01T22:31:44.054Z,5.75
2023-06-01T22:34:13.470Z,5.53
2023-06-01T22:36:44.088Z,5.75
2023-06-01T22:39:13.236Z,6.32
2023-06-01T22:41:42.356Z,5.85
2023-06-01T22:44:11.664Z,5.57
2023-06-01T22:46:40.928Z,5.97
2023-06-01T22:49:11.033Z,5.78
2023-06-01T22:51:41.656Z,5.53
2023-06-01T22:54:12.443Z,6.25
2023-06-01T22:56:41.767Z,6.05
2023-06-01T22:59:10.877Z,5.78
2023-06-01T23:01:39.629Z,6.15
2023-06-01T23:04:08.945Z,6.20
2023-06-01T23:06:39.463Z,5.95
2023-06-01T23:09:11.261Z,6.78
2023-06-01T23:11:42.169Z,5.95
2023-06-01T23:14:13.993Z,6.05
2023-06-01T23:16:46.473Z,6.10
2023-06-01T23:19:17.209Z,5.70
2023-06-01T23:21:49.292Z,5.82
2023-06-01T23:24:19.354Z,5.78
2023-06-01T23:26:49.918Z,6.15
2023-06-01T23:29:19.161Z,6.70
2023-06-01T23:31:48.976Z,6.30
2023-06-01T23:36:47.032Z,6.60
2023-06-01T23:39:16.324Z,6.82
2023-06-01T23:41:45.334Z,7.07
2023-06-01T23:44:16.822Z,6.43
2023-06-01T23:46:46.389Z,6.25
2023-06-01T23:49:16.124Z,5.80
2023-06-01T23:51:45.294Z,5.93
2023-06-01T23:54:14.408Z,6.82
2023-06-01T23:56:43.537Z,6.63
2023-06-01T23:59:12.578Z,6.97
